Time;durP1;ratioP1;P1;durP2;ratioP2;P2;SDS_P1;SDS_P2;PMS_P1;PMS_P2;Temp;Humidity;BMP_temperature;BMP_pressure;BME280_temperature;BME280_humidity;BME280_pressure;Samples;Min_cycle;Max_cycle;Signal;HPM_P1;HPM_P2
2022/05/18 13:24:26;;;;;;;2.25;1.10;;;;;;;16.53;31.78;98955.72;5540685;23;20298;-64
2022/05/18 13:26:54;;;;;;;2.25;0.90;;;;;;;16.59;31.78;98959.78;4899703;29;20062;-64
2022/05/18 13:32:16;;;;;;;8.13;0.90;;;;;;;16.48;32.04;98953.25;4876547;29;20084;-66
2022/05/18 13:34:55;;;;;;;4.35;1.15;;;;;;;16.24;32.36;98966.63;4889015;29;20053;-74
2022/05/18 13:37:23;;;;;;;1.97;0.90;;;;;;;16.19;32.48;98964.16;4876721;29;20425;-73
2022/05/18 13:40:10;;;;;;;3.50;1.00;;;;;;;16.11;32.66;98973.66;4882561;29;20155;-73
2022/05/18 13:42:38;;;;;;;1.40;1.00;;;;;;;15.74;33.71;98974.81;4880169;29;20515;-74
2022/05/18 13:45:14;;;;;;;6.20;0.95;;;;;;;15.59;33.92;98973.81;4881607;29;20076;-74
2022/05/18 13:47:55;;;;;;;5.60;1.25;;;;;;;15.74;34.16;98972.81;4880757;29;20053;-75
2022/05/18 13:50:27;;;;;;;3.70;1.20;;;;;;;15.68;33.94;98981.94;4880931;29;20092;-73
2022/05/18 13:52:59;;;;;;;2.92;0.90;;;;;;;15.69;33.86;98989.16;4880658;29;20045;-73
2022/05/18 13:55:28;;;;;;;4.18;1.10;;;;;;;15.70;33.83;98991.59;4881119;29;20542;-74
2022/05/18 13:58:02;;;;;;;5.88;2.13;;;;;;;15.77;34.26;98994.50;4881621;29;20420;-74
2022/05/18 14:00:35;;;;;;;6.05;1.00;;;;;;;15.94;33.89;98987.50;4880226;29;20109;-66
2022/05/18 14:03:04;;;;;;;1.92;1.02;;;;;;;15.83;34.20;98978.94;4863846;29;20083;-67
2022/05/18 14:07:49;;;;;;;1.88;1.13;;;;;;;15.78;34.11;98993.28;5040391;28;20431;-74
2022/05/18 14:10:37;;;;;;;5.88;1.27;;;;;;;15.74;33.75;98998.06;5037940;28;20054;-72
2022/05/18 14:13:05;;;;;;;3.22;1.52;;;;;;;15.82;33.53;98985.75;5029817;28;20046;-74
2022/05/18 14:15:39;;;;;;;3.63;1.10;;;;;;;15.94;33.69;98991.13;5029434;28;20046;-73
2022/05/18 14:18:20;;;;;;;2.55;1.20;;;;;;;15.98;34.05;98991.13;5025142;28;20049;-73
2022/05/18 14:21:18;;;;;;;4.15;1.10;;;;;;;15.97;34.11;98995.16;5060741;28;20392;-66
2022/05/18 14:24:07;;;;;;;2.88;1.10;;;;;;;15.88;33.80;98994.63;5050044;28;20423;-65
2022/05/18 14:26:55;;;;;;;6.50;1.00;;;;;;;15.68;33.46;98995.94;5048918;28;20052;-66
2022/05/18 14:29:32;;;;;;;2.70;1.52;;;;;;;15.62;33.52;98995.47;5045643;28;20053;-67
2022/05/18 14:32:08;;;;;;;3.28;0.90;;;;;;;15.53;33.84;99000.56;5039513;28;20068;-66
2022/05/18 14:35:00;;;;;;;4.63;0.85;;;;;;;15.52;33.51;98998.13;5048334;28;20073;-64
2022/05/18 14:37:33;;;;;;;3.72;0.93;;;;;;;15.59;33.59;99003.84;5049188;28;20084;-70
2022/05/18 14:40:05;;;;;;;2.67;0.90;;;;;;;15.67;33.44;99009.19;5047830;28;20075;-70
2022/05/18 14:42:47;;;;;;;1.75;1.00;;;;;;;15.63;33.55;99007.50;5035719;28;20071;-70
2022/05/18 14:45:17;;;;;;;4.00;1.40;;;;;;;15.59;33.20;99004.66;5047417;28;20041;-71
2022/05/18 14:47:46;;;;;;;2.33;1.42;;;;;;;15.56;33.58;99008.22;5049147;28;20045;-69
2022/05/18 14:50:23;;;;;;;3.87;1.77;;;;;;;15.56;33.64;99002.59;5048974;28;20052;-71
2022/05/18 14:53:09;;;;;;;6.30;1.20;;;;;;;15.49;33.61;99018.50;5048484;28;20053;-71
2022/05/18 14:55:51;;;;;;;1.63;0.90;;;;;;;15.32;33.25;99019.81;5043304;28;20052;-66
2022/05/18 14:58:23;;;;;;;2.05;1.17;;;;;;;15.33;33.93;99015.00;5046936;28;20083;-67
2022/05/18 15:00:52;;;;;;;3.08;1.00;;;;;;;15.32;32.90;99007.78;5047886;28;20069;-66
2022/05/18 15:03:25;;;;;;;;;;;;;;;15.08;33.23;99016.63;5027465;28;20066;-66
2022/05/18 15:05:55;;;;;;;1.98;0.95;;;;;;;15.17;33.22;99023.59;5024465;28;19925;-66
2022/05/18 15:08:55;;;;;;;1.77;1.48;;;;;;;15.20;33.19;99016.41;5018203;28;20077;-67
2022/05/18 15:11:43;;;;;;;3.17;1.38;;;;;;;15.14;34.16;99017.91;5012740;28;20500;-65
2022/05/18 15:14:31;;;;;;;2.13;1.08;;;;;;;15.02;33.44;99016.13;5024289;28;20138;-77
2022/05/18 15:17:02;;;;;;;2.13;0.80;;;;;;;14.84;33.52;99011.41;5026697;28;20046;-70
2022/05/18 15:19:33;;;;;;;2.17;0.90;;;;;;;14.72;34.02;99029.22;5026445;28;20049;-70
2022/05/18 15:22:13;;;;;;;2.85;0.93;;;;;;;14.74;33.68;99032.41;5028044;28;20061;-65
2022/05/18 15:24:40;;;;;;;;;;;;;;;14.62;34.12;99027.81;5029352;28;20048;-66
2022/05/18 15:27:38;;;;;;;6.43;1.10;;;;;;;14.57;33.51;99021.72;5028267;28;19929;-66
2022/05/18 15:30:10;;;;;;;2.05;0.80;;;;;;;14.50;33.82;99032.78;5027230;28;20088;-65
2022/05/18 15:32:39;;;;;;;1.58;0.90;;;;;;;14.49;34.13;99042.34;5007531;28;20579;-66
2022/05/18 15:35:28;;;;;;;2.07;1.10;;;;;;;14.44;34.13;99034.25;5015232;28;20572;-66
2022/05/18 15:37:55;;;;;;;3.20;1.10;;;;;;;14.44;33.98;99043.47;5015366;28;20061;-66
2022/05/18 15:40:22;;;;;;;2.63;1.05;;;;;;;14.47;34.19;99030.72;5014361;28;20042;-66
2022/05/18 15:42:49;;;;;;;5.00;0.70;;;;;;;14.37;34.37;99048.13;5015194;28;20073;-70
2022/05/18 15:45:16;;;;;;;1.55;0.95;;;;;;;14.27;34.22;99051.53;5013631;28;20046;-72
2022/05/18 15:47:50;;;;;;;2.63;0.95;;;;;;;14.24;34.13;99057.84;5015266;28;20045;-70
2022/05/18 15:50:18;;;;;;;3.63;1.23;;;;;;;14.25;34.28;99065.06;5014862;28;20475;-72
2022/05/18 15:52:48;;;;;;;2.60;0.88;;;;;;;14.24;34.55;99063.44;5013108;28;20060;-69
2022/05/18 15:55:23;;;;;;;9.45;1.10;;;;;;;14.17;34.33;99064.06;5015092;28;20423;-71
2022/05/18 15:57:51;;;;;;;1.75;0.90;;;;;;;14.10;34.58;99058.31;5015025;28;20058;-71
2022/05/18 16:00:24;;;;;;;5.50;1.25;;;;;;;14.09;34.42;99073.47;5013350;28;20480;-72
2022/05/18 16:02:52;;;;;;;5.28;0.80;;;;;;;14.08;34.29;99063.47;5015098;28;20050;-72
2022/05/18 16:05:21;;;;;;;1.23;0.80;;;;;;;14.04;34.47;99081.38;5013522;28;20058;-72
2022/05/18 16:07:51;;;;;;;3.08;0.90;;;;;;;13.98;34.23;99077.25;5014916;28;20050;-66
2022/05/18 16:10:20;;;;;;;;;;;;;;;13.92;34.26;99076.69;5015321;28;20050;-66
2022/05/18 16:12:49;;;;;;;2.55;1.00;;;;;;;14.02;34.39;99072.53;5015204;28;19925;-65
2022/05/18 16:15:18;;;;;;;5.68;1.40;;;;;;;14.07;34.14;99086.22;5015048;28;20500;-66
2022/05/18 16:17:47;;;;;;;2.47;0.80;;;;;;;14.11;34.08;99090.72;5015053;28;20124;-68
2022/05/18 16:20:14;;;;;;;3.70;1.20;;;;;;;14.13;34.00;99090.34;5014435;28;20187;-66
2022/05/18 16:22:42;;;;;;;1.80;0.80;;;;;;;13.94;34.25;99087.50;5014532;28;20584;-66
2022/05/18 16:25:19;;;;;;;3.10;0.80;;;;;;;13.85;34.66;99086.91;5014671;28;20769;-67
2022/05/18 16:27:46;;;;;;;6.80;0.90;;;;;;;13.79;34.98;99102.34;5014562;28;20050;-66
2022/05/18 16:30:14;;;;;;;2.53;0.80;;;;;;;13.82;34.79;99101.63;5014259;28;20053;-66
2022/05/18 16:32:41;;;;;;;1.52;0.70;;;;;;;13.88;34.89;99100.16;5014522;28;20054;-66
2022/05/18 16:35:09;;;;;;;3.42;0.73;;;;;;;13.91;35.11;99105.03;5014421;28;20041;-65
2022/05/18 16:37:36;;;;;;;5.93;1.40;;;;;;;13.89;35.37;99102.59;5014309;28;20153;-65
2022/05/18 16:40:05;;;;;;;10.10;1.17;;;;;;;13.94;35.13;99109.88;5012566;28;20056;-66
2022/05/18 16:42:32;;;;;;;2.35;0.93;;;;;;;13.91;34.99;99105.03;5013404;28;20052;-65
2022/05/18 16:44:59;;;;;;;3.67;0.75;;;;;;;13.78;35.05;99114.72;5013907;28;20448;-65
2022/05/18 16:47:26;;;;;;;1.60;1.00;;;;;;;13.65;35.04;99107.63;5014217;28;20140;-65
2022/05/18 16:49:53;;;;;;;2.97;0.70;;;;;;;13.48;35.14;99113.59;5014109;28;20062;-65
2022/05/18 16:52:20;;;;;;;7.03;1.00;;;;;;;13.28;35.47;99117.47;5014406;28;20046;-65
2022/05/18 16:54:47;;;;;;;4.88;0.95;;;;;;;13.24;35.60;99119.38;5013749;28;20081;-66
2022/05/18 16:57:26;;;;;;;5.70;1.15;;;;;;;13.25;35.72;99121.00;5014027;28;20052;-66
2022/05/18 16:59:54;;;;;;;17.90;1.07;;;;;;;13.10;35.77;99121.78;5013611;28;20073;-66
2022/05/18 17:02:23;;;;;;;4.38;0.82;;;;;;;12.94;35.96;99132.94;5013990;28;20053;-66
2022/05/18 17:07:36;;;;;;;5.20;1.08;;;;;;;12.87;36.43;99143.88;5014061;28;20129;-66
2022/05/18 17:10:04;;;;;;;0.95;0.60;;;;;;;12.82;36.43;99138.56;4997069;28;20572;-67
2022/05/18 17:12:43;;;;;;;1.65;1.00;;;;;;;12.82;36.38;99142.16;4994367;28;20047;-65
2022/05/18 17:15:13;;;;;;;2.97;0.70;;;;;;;12.68;36.77;99146.56;4993865;28;20082;-65
2022/05/18 17:17:41;;;;;;;;;;;;;;;12.50;37.21;99150.81;4995074;28;20054;-66
2022/05/18 17:20:10;;;;;;;7.65;0.90;;;;;;;12.52;36.93;99162.41;4996590;28;19925;-65
2022/05/18 17:22:37;;;;;;;2.42;0.73;;;;;;;12.50;36.98;99157.19;5013618;28;20108;-65
2022/05/18 17:25:05;;;;;;;2.58;1.77;;;;;;;12.53;36.69;99167.66;5012583;28;20046;-65
2022/05/18 17:27:33;;;;;;;5.80;0.90;;;;;;;12.54;37.25;99160.91;5011074;28;20052;-67
2022/05/18 17:30:06;;;;;;;3.00;1.27;;;;;;;12.60;36.81;99165.09;5013721;28;20088;-66
2022/05/18 17:32:44;;;;;;;3.50;1.27;;;;;;;12.58;37.26;99170.19;5013212;28;20054;-67
2022/05/18 17:35:16;;;;;;;8.15;2.40;;;;;;;12.60;36.90;99172.63;5012060;28;20140;-65
2022/05/18 17:37:44;;;;;;;3.08;1.08;;;;;;;12.66;37.31;99179.59;5013370;28;20042;-65
2022/05/18 17:40:13;;;;;;;3.60;0.93;;;;;;;12.66;37.52;99174.00;5012687;28;20133;-65
2022/05/18 17:42:40;;;;;;;4.72;0.82;;;;;;;12.71;37.50;99194.09;5012565;28;20535;-65
2022/05/18 17:45:08;;;;;;;1.20;0.80;;;;;;;12.75;36.82;99185.81;5013278;28;20516;-64
2022/05/18 17:47:36;;;;;;;2.58;1.00;;;;;;;12.79;36.87;99187.53;5013327;28;20125;-67
2022/05/18 17:50:04;;;;;;;6.15;0.93;;;;;;;12.74;36.74;99196.16;5012381;28;20045;-65
2022/05/18 17:52:37;;;;;;;2.90;0.90;;;;;;;12.76;37.29;99204.19;4996698;28;20054;-67
2022/05/18 17:55:07;;;;;;;1.83;1.00;;;;;;;12.67;37.51;99209.94;5007137;28;20048;-65
2022/05/18 17:57:35;;;;;;;3.60;1.05;;;;;;;12.59;37.14;99210.88;5012617;28;20531;-66
2022/05/18 18:00:04;;;;;;;2.22;0.80;;;;;;;12.51;37.16;99213.81;5012661;28;20566;-66
2022/05/18 18:02:34;;;;;;;2.42;1.00;;;;;;;12.54;37.57;99222.31;5012440;28;20491;-65
2022/05/18 18:05:03;;;;;;;4.78;0.88;;;;;;;12.53;37.43;99217.88;5011220;28;20065;-64
2022/05/18 18:07:32;;;;;;;2.72;0.95;;;;;;;12.48;37.55;99232.09;5012656;28;20056;-64
2022/05/18 18:10:00;;;;;;;2.90;0.80;;;;;;;12.45;37.03;99221.63;5012700;28;20061;-64
2022/05/18 18:12:28;;;;;;;1.40;0.90;;;;;;;12.40;37.44;99237.78;5008143;28;20205;-65
2022/05/18 18:14:55;;;;;;;7.57;1.10;;;;;;;12.39;37.37;99227.81;5013330;28;20413;-65
2022/05/18 18:17:24;;;;;;;2.35;0.98;;;;;;;12.38;37.33;99237.34;5012364;28;20068;-64
2022/05/18 18:19:55;;;;;;;7.97;1.13;;;;;;;12.39;37.50;99239.78;5012132;28;20101;-65
2022/05/18 18:22:22;;;;;;;3.00;0.90;;;;;;;12.39;37.46;99239.78;5001751;28;20816;-64
2022/05/18 18:24:52;;;;;;;3.85;1.02;;;;;;;12.34;37.73;99247.56;5008211;28;20125;-64
2022/05/18 18:27:20;;;;;;;2.58;1.20;;;;;;;12.15;37.83;99239.81;5012418;28;20075;-63
2022/05/18 18:29:48;;;;;;;5.47;1.10;;;;;;;12.04;38.37;99254.56;5011860;28;20160;-64
2022/05/18 18:32:15;;;;;;;1.48;0.90;;;;;;;12.05;38.31;99262.56;5012549;28;20084;-64
2022/05/18 18:34:43;;;;;;;4.57;1.50;;;;;;;12.09;38.29;99260.75;5012167;28;20092;-64
2022/05/18 18:37:10;;;;;;;3.00;1.20;;;;;;;12.08;37.63;99256.31;5012272;28;20050;-65
2022/05/18 18:39:50;;;;;;;2.65;1.33;;;;;;;11.95;37.91;99263.06;5012605;28;20080;-65
2022/05/18 18:42:22;;;;;;;4.75;2.05;;;;;;;11.94;38.33;99261.44;5012657;28;20482;-64
2022/05/18 18:44:49;;;;;;;8.60;3.65;;;;;;;11.88;38.23;99264.81;5011864;28;20050;-64
2022/05/18 18:47:16;;;;;;;4.30;2.08;;;;;;;11.86;38.13;99269.91;5012245;28;20532;-64
2022/05/18 18:49:43;;;;;;;3.40;1.92;;;;;;;11.89;38.45;99270.03;5011803;28;20148;-65
2022/05/18 18:55:11;;;;;;;2.45;1.50;;;;;;;11.88;38.22;99276.78;5010663;28;20065;-65
2022/05/18 18:57:45;;;;;;;4.10;1.20;;;;;;;11.84;38.52;99273.03;5005790;28;20042;-72
2022/05/18 19:00:21;;;;;;;6.97;1.20;;;;;;;11.83;37.97;99278.94;5012144;28;20058;-71
2022/05/18 19:02:48;;;;;;;1.55;0.88;;;;;;;11.78;38.43;99280.00;5035434;28;20042;-71
2022/05/18 19:05:19;;;;;;;1.88;0.90;;;;;;;11.71;37.87;99288.13;5012097;28;20503;-70
2022/05/18 19:07:51;;;;;;;2.58;1.20;;;;;;;11.73;38.30;99283.03;5015347;28;20119;-65
2022/05/18 19:10:21;;;;;;;7.55;1.00;;;;;;;11.70;38.54;99282.91;5005067;28;20145;-64
2022/05/18 19:12:51;;;;;;;;;;;;;;;11.56;38.98;99282.38;5015243;28;20140;-64
2022/05/18 19:15:25;;;;;;;3.03;1.20;;;;;;;11.60;39.08;99275.75;5014927;28;19930;-63
2022/05/18 19:17:56;;;;;;;;;;;;;;;11.55;38.89;99273.22;5016200;28;20555;-70
2022/05/18 19:20:26;;;;;;;;;;;;;;;11.44;38.73;99277.59;5015941;28;19925;-70
2022/05/18 19:22:55;;;;;;;;;;;;;;;11.35;38.81;99279.66;5004920;28;19971;-71
2022/05/18 19:25:30;;;;;;;2.22;0.95;;;;;;;11.32;39.21;99277.56;5014780;28;19960;-71
2022/05/18 19:27:59;;;;;;;2.78;1.10;;;;;;;11.23;39.42;99282.41;5014265;28;20575;-73
2022/05/18 19:30:28;;;;;;;2.17;1.00;;;;;;;11.18;39.14;99281.78;5013632;28;20080;-70
2022/05/18 19:32:56;;;;;;;1.55;1.10;;;;;;;11.16;39.79;99289.69;5014375;28;20045;-71
2022/05/18 19:35:24;;;;;;;2.58;1.50;;;;;;;11.20;39.23;99290.63;5015534;28;20054;-69
2022/05/18 19:37:51;;;;;;;2.25;1.30;;;;;;;11.19;39.13;99295.38;5013254;28;20073;-69
2022/05/18 19:40:19;;;;;;;2.72;1.42;;;;;;;11.17;39.58;99286.56;5014967;28;20054;-70
2022/05/18 19:42:59;;;;;;;2.70;1.40;;;;;;;11.32;39.01;99288.72;5015873;28;20060;-71
2022/05/18 19:45:26;;;;;;;;;;;;;;;11.30;39.30;99288.22;5014655;28;20046;-68
2022/05/18 19:47:55;;;;;;;1.75;1.10;;;;;;;11.34;39.39;99291.16;5014801;28;20415;-65
2022/05/18 19:50:24;;;;;;;2.15;1.30;;;;;;;11.30;39.51;99290.19;5014483;28;20046;-65
2022/05/18 19:53:10;;;;;;;4.10;1.60;;;;;;;11.22;39.31;99300.25;5016599;28;20054;-64
2022/05/18 19:55:46;;;;;;;4.20;1.20;;;;;;;11.17;39.53;99297.69;4997928;28;20110;-65
2022/05/18 19:58:19;;;;;;;2.13;1.60;;;;;;;11.28;39.15;99307.22;5013513;28;20465;-66
2022/05/18 20:00:46;;;;;;;7.68;1.40;;;;;;;11.35;39.95;99303.91;5013873;28;20054;-74
2022/05/18 20:03:13;;;;;;;2.00;1.23;;;;;;;11.38;39.90;99297.66;5034402;28;20049;-70
2022/05/18 20:05:40;;;;;;;5.88;1.40;;;;;;;11.35;39.66;99299.16;5033371;28;20115;-71
2022/05/18 20:08:08;;;;;;;99.32;35.00;;;;;;;11.29;40.00;99297.75;5034910;28;20592;-69
2022/05/18 20:10:36;;;;;;;10.65;3.70;;;;;;;11.35;40.08;99299.16;5033713;28;20144;-70
2022/05/18 20:13:04;;;;;;;4.10;1.70;;;;;;;11.40;40.11;99296.13;5034539;28;20053;-70
2022/05/18 20:15:32;;;;;;;3.20;1.63;;;;;;;11.42;39.41;99299.41;5034606;28;20046;-70
2022/05/18 20:17:59;;;;;;;3.03;1.35;;;;;;;11.51;39.47;99296.50;5034675;28;20103;-71
2022/05/18 20:20:31;;;;;;;2.17;1.35;;;;;;;11.52;39.70;99296.16;5034200;28;20091;-66
2022/05/18 20:22:59;;;;;;;7.18;1.60;;;;;;;11.43;39.57;99301.00;5034590;28;20145;-67
2022/05/18 20:25:27;;;;;;;5.15;1.58;;;;;;;11.42;40.02;99302.19;5034486;28;20403;-66
2022/05/18 20:28:04;;;;;;;3.35;1.30;;;;;;;11.45;39.67;99304.28;5034265;28;20133;-66
2022/05/18 20:30:31;;;;;;;3.25;1.30;;;;;;;11.46;39.68;99305.91;5034125;28;20053;-66
2022/05/18 20:32:58;;;;;;;2.38;1.42;;;;;;;11.53;40.25;99299.78;5034360;28;20056;-66
2022/05/18 20:35:25;;;;;;;4.50;1.55;;;;;;;11.56;39.41;99299.09;5034248;28;20524;-67
2022/05/18 20:37:53;;;;;;;5.40;1.92;;;;;;;11.54;39.74;99293.84;5005425;28;20054;-66
2022/05/18 20:40:20;;;;;;;5.63;1.70;;;;;;;11.52;40.45;99304.53;5014685;28;20534;-67
2022/05/18 20:42:48;;;;;;;3.42;2.60;;;;;;;11.47;40.17;99303.94;5013602;28;20041;-70
2022/05/18 20:45:22;;;;;;;4.30;1.73;;;;;;;11.39;40.19;99302.03;5014279;28;20054;-70
2022/05/18 20:47:50;;;;;;;3.95;1.83;;;;;;;11.30;40.49;99307.72;5014202;28;20409;-70
2022/05/18 20:50:18;;;;;;;6.25;2.10;;;;;;;11.29;40.33;99308.88;5014245;28;20092;-69
2022/05/18 20:52:45;;;;;;;4.93;1.65;;;;;;;11.34;40.79;99305.06;5014012;28;20056;-69
2022/05/18 20:55:13;;;;;;;2.63;1.40;;;;;;;11.38;40.62;99304.03;5014504;28;20042;-70
2022/05/18 20:57:44;;;;;;;2.72;1.70;;;;;;;11.42;40.43;99304.97;5014292;28;20111;-70
2022/05/18 21:00:13;;;;;;;4.07;1.40;;;;;;;11.41;40.93;99302.53;5014315;28;20062;-69
2022/05/18 21:02:40;;;;;;;3.00;1.40;;;;;;;11.33;41.26;99306.22;5012570;28;20539;-67
2022/05/18 21:05:08;;;;;;;2.47;1.48;;;;;;;11.29;40.88;99311.66;5013978;28;20468;-66
2022/05/18 21:07:35;;;;;;;4.95;1.90;;;;;;;11.24;41.02;99309.09;5012913;28;20064;-67
2022/05/18 21:10:15;;;;;;;3.22;1.50;;;;;;;11.22;40.88;99305.81;5013996;28;20504;-66
2022/05/18 21:12:45;;;;;;;2.88;1.60;;;;;;;11.17;41.12;99311.63;5012432;28;20045;-67
2022/05/18 21:15:26;;;;;;;2.05;1.20;;;;;;;11.05;41.52;99315.16;5013579;28;20136;-65
2022/05/18 21:17:55;;;;;;;3.00;1.77;;;;;;;11.05;41.46;99312.38;5013784;28;20116;-65
2022/05/18 21:20:23;;;;;;;4.43;1.63;;;;;;;11.08;41.71;99306.13;5013304;28;20083;-66
2022/05/18 21:22:50;;;;;;;3.50;1.52;;;;;;;11.11;41.41;99302.66;5013962;28;20041;-66
2022/05/18 21:25:18;;;;;;;3.08;1.90;;;;;;;11.07;41.02;99300.91;5013375;28;20072;-65
2022/05/18 21:27:47;;;;;;;4.28;1.70;;;;;;;11.09;41.27;99298.59;5006882;28;20137;-66
2022/05/18 21:30:16;;;;;;;6.47;3.05;;;;;;;11.14;42.08;99296.41;4992284;28;20145;-66
2022/05/18 21:32:46;;;;;;;4.13;1.80;;;;;;;11.14;42.07;99293.63;4994185;28;20081;-67
2022/05/18 21:35:17;;;;;;;5.53;2.38;;;;;;;11.09;42.19;99296.63;5005369;28;20061;-67
2022/05/18 21:37:45;;;;;;;4.85;1.83;;;;;;;10.98;42.72;99300.16;4999414;28;20050;-66
2022/05/18 21:40:13;;;;;;;2.67;1.50;;;;;;;11.00;41.99;99303.44;4993049;28;20136;-69
2022/05/18 21:42:41;;;;;;;3.38;1.88;;;;;;;10.99;41.83;99296.25;4993773;28;20050;-70
2022/05/18 21:45:12;;;;;;;4.43;1.67;;;;;;;11.05;42.46;99295.66;4993415;28;20050;-71
2022/05/18 21:47:39;;;;;;;11.00;1.70;;;;;;;11.03;42.32;99302.75;5008858;28;20071;-70
2022/05/18 21:50:07;;;;;;;2.90;1.80;;;;;;;11.03;42.58;99302.75;5011806;28;20165;-70
2022/05/18 21:52:34;;;;;;;4.22;1.98;;;;;;;11.04;42.54;99296.00;5013384;28;20519;-69
2022/05/18 21:55:03;;;;;;;5.53;1.80;;;;;;;11.05;42.70;99292.09;5013384;28;20077;-70
2022/05/18 21:57:30;;;;;;;2.95;1.70;;;;;;;11.03;43.22;99283.25;5013267;28;20523;-70
2022/05/18 21:59:58;;;;;;;3.33;1.70;;;;;;;11.04;43.15;99282.91;5012723;28;20140;-70
2022/05/18 22:02:30;;;;;;;8.25;2.17;;;;;;;11.07;43.31;99281.41;5013048;28;20049;-71
2022/05/18 22:04:59;;;;;;;4.90;2.10;;;;;;;11.14;42.99;99271.34;5013005;28;20053;-70
2022/05/18 22:07:26;;;;;;;4.95;2.20;;;;;;;11.15;42.74;99274.94;5012826;28;20151;-70
2022/05/18 22:09:53;;;;;;;5.72;1.80;;;;;;;11.17;42.77;99264.28;5013008;28;20451;-70
2022/05/18 22:12:22;;;;;;;7.13;2.03;;;;;;;11.18;43.40;99265.91;5013095;28;20576;-69
2022/05/18 22:14:50;;;;;;;6.10;1.90;;;;;;;11.18;43.34;99265.91;5012612;28;20090;-70
2022/05/18 22:17:18;;;;;;;6.45;2.35;;;;;;;11.14;43.30;99273.34;5011789;28;20112;-70
2022/05/18 22:19:45;;;;;;;4.63;1.92;;;;;;;11.11;43.55;99268.44;5012494;28;20062;-70
2022/05/18 22:22:12;;;;;;;4.25;2.10;;;;;;;11.04;43.55;99270.97;5012989;28;20048;-70
2022/05/18 22:24:40;;;;;;;5.60;2.47;;;;;;;11.00;43.61;99265.28;5012608;28;20054;-70
2022/05/18 22:27:25;;;;;;;5.00;2.17;;;;;;;10.95;43.70;99267.44;5012911;28;20057;-70
2022/05/18 22:30:11;;;;;;;5.20;1.83;;;;;;;10.90;43.45;99262.91;5012754;28;20050;-70
2022/05/18 22:32:38;;;;;;;4.35;1.90;;;;;;;10.83;44.08;99259.03;5012827;28;20038;-69
2022/05/18 22:35:08;;;;;;;3.50;2.10;;;;;;;10.76;44.25;99269.91;5012585;28;20050;-69
2022/05/18 22:37:42;;;;;;;8.57;2.28;;;;;;;10.66;43.98;99262.00;5013074;28;20049;-70
2022/05/18 22:40:11;;;;;;;4.13;2.38;;;;;;;10.65;44.26;99263.13;5012943;28;20061;-70
2022/05/18 22:42:38;;;;;;;3.88;2.33;;;;;;;10.61;44.35;99262.19;5015689;28;20042;-70
2022/05/18 22:45:13;;;;;;;7.05;3.45;;;;;;;10.59;44.85;99256.97;5016564;28;20108;-71
2022/05/18 22:47:42;;;;;;;4.60;2.40;;;;;;;10.58;45.12;99251.75;5016644;28;20060;-70
2022/05/18 22:50:20;;;;;;;4.78;2.45;;;;;;;10.54;45.41;99259.16;5016764;28;20058;-70
2022/05/18 22:52:48;;;;;;;7.13;2.33;;;;;;;10.48;45.22;99252.16;5016542;28;20054;-70
2022/05/18 22:55:15;;;;;;;2.97;1.90;;;;;;;10.39;45.10;99245.84;5016423;28;20397;-70
2022/05/18 22:57:43;;;;;;;4.03;1.92;;;;;;;10.33;45.06;99238.88;5016217;28;20050;-70
2022/05/18 23:00:17;;;;;;;5.93;2.20;;;;;;;10.38;45.55;99241.44;5016305;28;20108;-70
2022/05/18 23:02:45;;;;;;;6.38;2.00;;;;;;;10.31;45.19;99241.16;5016381;28;20430;-69
2022/05/18 23:05:13;;;;;;;3.95;2.10;;;;;;;10.30;44.91;99242.31;5016414;28;20049;-70
2022/05/18 23:07:41;;;;;;;3.85;1.63;;;;;;;10.30;45.92;99239.53;5016260;28;20136;-70
2022/05/18 23:10:10;;;;;;;3.45;1.83;;;;;;;10.32;45.72;99234.44;5014793;28;20064;-70
2022/05/18 23:12:37;;;;;;;8.55;2.10;;;;;;;10.29;45.88;99232.34;5016160;28;20064;-70
2022/05/18 23:15:06;;;;;;;3.58;1.83;;;;;;;10.26;45.95;99224.69;5016064;28;20140;-71
2022/05/18 23:17:35;;;;;;;4.20;1.55;;;;;;;10.26;46.13;99227.44;5016083;28;20512;-68
2022/05/18 23:20:04;;;;;;;3.75;1.65;;;;;;;10.24;45.92;99238.91;5015746;28;20054;-65
2022/05/18 23:23:31;;;;;;;2.45;1.60;;;;;;;10.25;45.72;99231.41;5015985;28;20547;-65
2022/05/18 23:25:26;;;;;;;3.58;1.85;;;;;;;10.17;45.75;99229.47;5014275;28;20480;-64
2022/05/18 23:27:54;;;;;;;3.30;1.58;;;;;;;10.16;45.81;99228.66;5016236;28;20155;-75
2022/05/18 23:30:21;;;;;;;2.70;1.60;;;;;;;10.16;46.21;99228.66;5016329;28;20058;-74
2022/05/18 23:32:49;;;;;;;2.55;1.60;;;;;;;10.12;46.52;99238.84;5016522;28;20130;-74
2022/05/18 23:35:16;;;;;;;2.92;1.83;;;;;;;10.11;46.49;99241.94;5015365;28;20076;-70
2022/05/18 23:37:43;;;;;;;6.10;2.10;;;;;;;10.09;46.53;99239.50;5002201;28;20061;-70
2022/05/18 23:40:10;;;;;;;7.32;1.90;;;;;;;10.10;46.49;99229.22;4995924;28;20062;-70
2022/05/18 23:42:37;;;;;;;3.47;2.20;;;;;;;10.13;46.26;99222.97;4995982;28;20497;-70
2022/05/18 23:45:04;;;;;;;3.33;2.20;;;;;;;10.16;46.29;99223.09;4996115;28;20172;-70
2022/05/18 23:47:31;;;;;;;5.95;2.00;;;;;;;10.23;46.23;99222.56;4995704;28;20054;-70
2022/05/18 23:49:58;;;;;;;4.93;2.13;;;;;;;10.28;46.01;99211.25;4995853;28;20468;-69
2022/05/18 23:52:25;;;;;;;3.92;2.10;;;;;;;10.34;45.74;99213.50;4994835;28;20141;-71
2022/05/18 23:54:52;;;;;;;3.83;1.70;;;;;;;10.37;45.67;99217.56;4995730;28;20068;-71
2022/05/18 23:57:29;;;;;;;3.55;2.05;;;;;;;10.35;46.02;99219.88;5012783;28;20559;-69
